createdAt,value
2022-08-22T00:20:28.563Z,17.52
2022-08-22T00:42:33.148Z,17.59
2022-08-22T01:04:59.845Z,17.55
2022-08-22T01:27:24.904Z,17.40
2022-08-22T01:49:19.472Z,17.34
2022-08-22T02:11:10.575Z,17.24
2022-08-22T02:33:06.808Z,17.07
2022-08-22T02:55:05.258Z,16.91
2022-08-22T03:16:56.545Z,16.87
2022-08-22T03:38:54.191Z,16.67
2022-08-22T04:01:10.027Z,16.57
2022-08-22T04:23:26.753Z,16.55
2022-08-22T04:45:18.466Z,16.52
2022-08-22T05:07:12.124Z,16.58
2022-08-22T05:29:03.323Z,16.64
2022-08-22T05:50:55.613Z,16.70
2022-08-22T06:12:46.074Z,16.65
2022-08-22T06:34:38.439Z,16.65
2022-08-22T06:56:29.799Z,16.71
2022-08-22T07:18:22.064Z,16.79
2022-08-22T07:40:17.750Z,16.89
2022-08-22T08:02:07.302Z,17.01
2022-08-22T08:23:54.974Z,17.15
2022-08-22T08:45:59.135Z,17.45
2022-08-22T09:08:27.649Z,17.65
2022-08-22T09:30:16.772Z,17.56
2022-08-22T09:52:15.466Z,17.68
2022-08-22T10:14:22.777Z,17.76
2022-08-22T10:36:12.274Z,17.88
2022-08-22T10:58:09.909Z,17.86
2022-08-22T11:20:19.443Z,17.95
2022-08-22T11:42:11.657Z,18.01
2022-08-22T12:04:16.999Z,18.24
2022-08-22T12:26:15.109Z,18.40
2022-08-22T12:48:13.280Z,18.64
2022-08-22T13:10:03.720Z,18.80
2022-08-22T13:31:56.190Z,19.03
2022-08-22T13:53:49.824Z,19.10
2022-08-22T14:15:47.390Z,19.07
2022-08-22T14:37:38.777Z,19.09
2022-08-22T14:59:37.295Z,19.13
2022-08-22T15:21:26.330Z,19.18
2022-08-22T15:43:21.766Z,19.15
2022-08-22T16:05:23.117Z,19.18
2022-08-22T16:27:19.428Z,19.15
2022-08-22T16:49:05.471Z,19.10
2022-08-22T17:11:07.015Z,19.05
2022-08-22T17:33:09.208Z,19.07
2022-08-22T17:54:58.700Z,19.16
2022-08-22T18:16:50.492Z,19.05
2022-08-22T18:38:42.329Z,19.06
2022-08-22T19:00:49.575Z,19.02
2022-08-22T19:22:37.123Z,18.99
2022-08-22T19:44:40.447Z,18.88
2022-08-22T20:06:44.023Z,18.91
2022-08-22T20:28:49.814Z,19.02
2022-08-22T20:50:35.931Z,18.97
2022-08-22T21:12:22.473Z,18.83
2022-08-22T21:34:13.095Z,18.76
2022-08-22T22:18:14.037Z,18.90
2022-08-22T22:40:00.852Z,18.88
2022-08-22T23:02:09.087Z,19.06
2022-08-22T23:23:57.603Z,19.23
2022-08-22T23:45:43.322Z,19.15
